Time;durP1;ratioP1;P1;durP2;ratioP2;P2;SDS_P1;SDS_P2;PMS_P1;PMS_P2;Temp;Humidity;BMP_temperature;BMP_pressure;BME280_temperature;BME280_humidity;BME280_pressure;Samples;Min_cycle;Max_cycle;Signal;HPM_P1;HPM_P2
2022/03/03 00:02:20;;;;;;;29.67;16.67;;;;;;;3.63;56.02;100362.28;5011262;28;20049;-90
2022/03/03 00:04:47;;;;;;;30.88;16.83;;;;;;;3.63;55.97;100367.53;4988973;28;20683;-89
2022/03/03 00:07:14;;;;;;;31.15;16.80;;;;;;;3.63;55.81;100354.41;5012392;28;20056;-90
2022/03/03 00:09:41;;;;;;;32.72;16.67;;;;;;;3.62;55.86;100355.34;5011696;28;20041;-90
2022/03/03 00:12:09;;;;;;;29.98;15.80;;;;;;;3.60;55.78;100348.47;4997166;28;20606;-90
2022/03/03 00:14:36;;;;;;;32.60;17.17;;;;;;;3.60;55.87;100348.47;5005279;28;20049;-90
2022/03/03 00:17:02;;;;;;;36.25;17.63;;;;;;;3.58;56.17;100345.91;5030032;28;20124;-90
2022/03/03 00:19:29;;;;;;;32.55;16.83;;;;;;;3.57;56.13;100341.59;5016692;28;20504;-87
2022/03/03 00:21:56;;;;;;;29.48;15.60;;;;;;;3.57;56.08;100333.72;5009111;28;20037;-90
2022/03/03 00:24:23;;;;;;;31.65;16.10;;;;;;;3.56;56.17;100337.28;5037418;28;20041;-90
2022/03/03 00:26:51;;;;;;;34.80;16.83;;;;;;;3.54;56.23;100347.00;4993339;28;20132;-86
2022/03/03 00:29:18;;;;;;;28.05;15.48;;;;;;;3.52;56.02;100356.72;5020086;28;20048;-90
2022/03/03 00:31:44;;;;;;;30.85;15.50;;;;;;;3.50;55.96;100348.09;5020921;28;20064;-90
2022/03/03 00:34:11;;;;;;;36.03;16.58;;;;;;;3.48;55.72;100355.19;5005946;28;20047;-89
2022/03/03 00:36:38;;;;;;;31.92;16.17;;;;;;;3.43;55.71;100358.03;5010459;28;20044;-91
2022/03/03 00:39:05;;;;;;;27.98;14.85;;;;;;;3.41;55.83;100353.78;4981136;28;20049;-90
2022/03/03 00:41:32;;;;;;;27.10;14.52;;;;;;;3.38;55.85;100357.41;5018215;28;20045;-90
2022/03/03 00:43:58;;;;;;;28.70;15.02;;;;;;;3.36;55.83;100351.41;5006788;28;20045;-90
2022/03/03 00:46:25;;;;;;;26.55;14.10;;;;;;;3.36;56.02;100355.78;5024518;28;20040;-90
2022/03/03 00:49:21;;;;;;;29.73;15.20;;;;;;;3.29;56.54;100354.44;5024992;28;20037;-90
2022/03/03 00:51:48;;;;;;;29.35;15.77;;;;;;;3.34;56.16;100352.41;4988458;28;20413;-90
2022/03/03 00:54:15;;;;;;;28.00;15.43;;;;;;;3.33;56.09;100350.69;4995061;28;20053;-90
2022/03/03 00:56:42;;;;;;;25.65;13.60;;;;;;;3.31;56.07;100350.81;4987485;28;20077;-91
2022/03/03 00:59:10;;;;;;;28.20;14.82;;;;;;;3.30;56.32;100346.47;5006652;28;20040;-90
2022/03/03 01:01:37;;;;;;;26.05;13.95;;;;;;;3.28;56.52;100344.84;5050514;28;20099;-90
2022/03/03 01:04:04;;;;;;;26.15;13.43;;;;;;;3.26;56.17;100348.41;5012304;28;20040;-90
2022/03/03 01:06:33;;;;;;;26.95;14.80;;;;;;;3.26;56.45;100344.94;5023721;28;20040;-90
2022/03/03 01:09:00;;;;;;;26.00;14.85;;;;;;;3.25;56.65;100341.44;5006888;28;20052;-90
2022/03/03 01:11:26;;;;;;;28.58;14.93;;;;;;;3.26;56.36;100345.78;5018357;28;20064;-89
2022/03/03 01:13:53;;;;;;;34.22;15.95;;;;;;;3.25;56.43;100343.22;5004791;28;20413;-90
2022/03/03 01:16:20;;;;;;;28.55;15.13;;;;;;;3.23;56.56;100337.19;5020513;28;20050;-91
2022/03/03 01:18:47;;;;;;;26.88;14.85;;;;;;;3.23;56.43;100345.06;5003063;28;20076;-90
2022/03/03 01:21:14;;;;;;;33.38;14.98;;;;;;;3.22;56.47;100340.75;4987522;28;20413;-90
2022/03/03 01:23:41;;;;;;;26.45;14.48;;;;;;;3.22;56.82;100343.38;5008494;28;20087;-90
2022/03/03 01:26:08;;;;;;;29.50;14.00;;;;;;;3.20;56.59;100342.59;4992957;28;20053;-90
2022/03/03 01:28:35;;;;;;;26.20;13.80;;;;;;;3.17;56.81;100340.97;5029606;28;20041;-89
2022/03/03 01:31:01;;;;;;;30.15;15.32;;;;;;;3.16;56.63;100347.16;5020914;28;20037;-89
2022/03/03 01:33:28;;;;;;;27.27;15.10;;;;;;;3.14;57.04;100343.75;4990131;28;20063;-90
2022/03/03 01:35:55;;;;;;;27.70;14.85;;;;;;;3.12;56.94;100342.97;5009086;28;20056;-90
2022/03/03 01:38:22;;;;;;;28.63;15.13;;;;;;;3.12;56.78;100350.84;4992555;28;20037;-90
2022/03/03 01:40:48;;;;;;;28.67;14.85;;;;;;;3.11;56.97;100349.16;5020750;28;20041;-89
2022/03/03 01:43:15;;;;;;;29.27;14.45;;;;;;;3.10;57.05;100344.81;5035217;28;20051;-90
2022/03/03 01:45:42;;;;;;;29.38;14.50;;;;;;;3.08;56.98;100340.56;5019796;28;20140;-91
2022/03/03 01:48:09;;;;;;;31.00;15.00;;;;;;;3.07;56.91;100350.22;5030846;28;20045;-90
2022/03/03 01:50:36;;;;;;;24.48;14.30;;;;;;;3.07;56.76;100344.13;5003297;28;20551;-90
2022/03/03 01:53:03;;;;;;;25.52;14.13;;;;;;;3.02;56.90;100332.09;5018451;28;20048;-90
2022/03/03 01:55:31;;;;;;;28.95;15.13;;;;;;;3.02;57.17;100332.09;4991056;28;20075;-90
2022/03/03 01:57:59;;;;;;;27.90;14.95;;;;;;;3.00;56.92;100322.59;5033487;28;20431;-90
2022/03/03 02:00:26;;;;;;;27.83;14.88;;;;;;;2.98;56.92;100327.09;4994508;28;20051;-90
2022/03/03 02:02:52;;;;;;;31.40;14.95;;;;;;;2.97;57.03;100322.75;4993614;28;20056;-90
2022/03/03 02:05:20;;;;;;;27.15;14.45;;;;;;;2.96;57.31;100311.41;5024380;28;20103;-90
2022/03/03 02:07:46;;;;;;;26.65;14.90;;;;;;;2.95;57.37;100312.34;5023402;28;20400;-91
2022/03/03 02:10:13;;;;;;;36.13;16.38;;;;;;;2.93;57.36;100319.44;5010026;28;20041;-90
2022/03/03 02:12:40;;;;;;;29.88;14.73;;;;;;;2.91;57.15;100320.44;5022876;28;20049;-90
2022/03/03 02:15:20;;;;;;;26.67;15.18;;;;;;;2.87;57.31;100322.34;5010842;28;20454;-90
2022/03/03 02:17:47;;;;;;;27.70;15.38;;;;;;;2.89;57.31;100314.41;4978507;28;20378;-90
2022/03/03 02:20:27;;;;;;;27.42;15.13;;;;;;;2.85;57.59;100308.47;4997936;28;20037;-90
2022/03/03 02:22:55;;;;;;;32.42;15.98;;;;;;;2.86;57.49;100304.06;4973719;28;20053;-90
2022/03/03 02:25:23;;;;;;;31.08;16.52;;;;;;;2.83;57.48;100307.69;5010941;28;20124;-90
2022/03/03 02:27:50;;;;;;;32.83;16.65;;;;;;;2.81;57.47;100305.13;5021424;28;20048;-91
2022/03/03 02:34:48;;;;;;;27.92;14.98;;;;;;;2.72;57.14;100289.00;5015056;28;20041;-91
2022/03/03 02:37:15;;;;;;;28.30;15.32;;;;;;;2.72;57.45;100291.63;5015991;28;20041;-91
2022/03/03 02:39:43;;;;;;;31.15;15.48;;;;;;;2.70;57.21;100286.47;5013023;28;20046;-90
2022/03/03 02:42:10;;;;;;;28.52;14.48;;;;;;;2.70;57.26;100289.09;5013016;28;20389;-91
2022/03/03 02:44:36;;;;;;;30.00;15.48;;;;;;;2.69;57.25;100290.00;4990489;28;20111;-91
2022/03/03 02:47:04;;;;;;;25.27;14.38;;;;;;;2.68;57.43;100283.06;5001367;28;20128;-90
2022/03/03 02:49:31;;;;;;;28.23;14.85;;;;;;;2.66;57.57;100277.03;5014843;28;20063;-92
2022/03/03 02:51:57;;;;;;;28.40;15.93;;;;;;;2.64;57.78;100271.00;5008487;28;20430;-91
2022/03/03 02:54:24;;;;;;;35.00;15.85;;;;;;;2.66;57.57;100260.47;5018729;28;20070;-90
2022/03/03 02:59:36;;;;;;;37.20;17.65;;;;;;;2.63;57.80;100252.75;5008335;28;20049;-89
2022/03/03 03:02:03;;;;;;;40.95;17.05;;;;;;;2.62;57.89;100257.16;5022979;28;20055;-86
2022/03/03 03:04:30;;;;;;;41.17;16.92;;;;;;;2.62;57.92;100254.53;5007422;28;20094;-90
2022/03/03 03:06:56;;;;;;;42.83;16.17;;;;;;;2.60;57.77;100253.75;5020146;28;20048;-90
2022/03/03 03:09:23;;;;;;;31.60;15.88;;;;;;;2.59;57.94;100254.66;4996732;28;20044;-90
2022/03/03 03:11:51;;;;;;;36.33;15.98;;;;;;;2.59;57.85;100250.25;5008863;28;20136;-91
2022/03/03 03:14:18;;;;;;;32.47;16.13;;;;;;;2.58;58.13;100253.81;5023547;28;20052;-91
2022/03/03 03:16:44;;;;;;;35.35;15.60;;;;;;;2.56;57.75;100254.81;5023549;28;20051;-90
2022/03/03 03:19:12;;;;;;;26.85;14.98;;;;;;;2.53;57.97;100258.44;4992210;28;20037;-91
2022/03/03 03:21:38;;;;;;;32.53;16.67;;;;;;;2.51;57.97;100249.78;5006124;28;20069;-90
2022/03/03 03:24:05;;;;;;;29.98;15.70;;;;;;;2.50;57.81;100255.97;5024840;28;20504;-91
2022/03/03 03:26:36;;;;;;;32.40;16.58;;;;;;;2.48;58.18;100244.69;5037684;28;20639;-90
2022/03/03 03:29:03;;;;;;;28.85;15.75;;;;;;;2.47;58.26;100235.16;5018365;28;20041;-89
2022/03/03 03:31:30;;;;;;;30.45;15.48;;;;;;;2.48;58.11;100236.00;5009233;28;20040;-90
2022/03/03 03:33:57;;;;;;;28.25;14.80;;;;;;;2.47;58.13;100236.91;5012539;28;20099;-90
2022/03/03 03:36:24;;;;;;;30.25;15.27;;;;;;;2.47;58.02;100231.66;5023589;28;20063;-90
2022/03/03 03:38:50;;;;;;;29.67;14.75;;;;;;;2.43;58.25;100238.84;5019828;28;20041;-90
2022/03/03 03:41:17;;;;;;;32.00;16.15;;;;;;;2.41;58.05;100234.59;5037870;28;20057;-91
2022/03/03 03:43:44;;;;;;;27.92;14.20;;;;;;;2.39;58.22;100238.16;4996276;28;20057;-91
2022/03/03 03:46:11;;;;;;;28.73;14.93;;;;;;;2.38;58.05;100240.81;5005322;28;20045;-91
2022/03/03 03:48:38;;;;;;;32.90;14.40;;;;;;;2.36;57.86;100250.53;5004819;28;20099;-90
2022/03/03 03:51:04;;;;;;;30.35;14.70;;;;;;;2.34;57.88;100255.88;4985208;28;20044;-91
2022/03/03 03:53:31;;;;;;;29.25;14.20;;;;;;;2.31;58.14;100252.53;5009252;28;20052;-90
2022/03/03 03:55:59;;;;;;;27.80;14.48;;;;;;;2.29;57.99;100250.00;5003459;28;20041;-90
2022/03/03 03:58:26;;;;;;;28.83;14.20;;;;;;;2.27;58.01;100245.75;5010159;28;20563;-90
2022/03/03 04:00:53;;;;;;;27.17;14.10;;;;;;;2.28;58.08;100248.28;5004684;28;20502;-91
2022/03/03 04:03:20;;;;;;;24.60;14.05;;;;;;;2.26;58.24;100247.50;4997318;28;20044;-91
2022/03/03 04:05:47;;;;;;;29.77;14.07;;;;;;;2.26;58.32;100242.25;5015198;28;20054;-90
2022/03/03 04:08:14;;;;;;;29.17;14.13;;;;;;;2.26;58.51;100244.03;5012060;28;20512;-90
2022/03/03 04:10:41;;;;;;;30.45;15.30;;;;;;;2.24;58.29;100238.88;5033087;28;20803;-90
2022/03/03 04:13:08;;;;;;;28.85;13.88;;;;;;;2.23;58.39;100241.56;5026001;28;20041;-90
2022/03/03 04:15:35;;;;;;;27.20;14.25;;;;;;;2.23;58.07;100236.31;5024161;28;20048;-90
2022/03/03 04:18:02;;;;;;;28.80;14.07;;;;;;;2.20;58.51;100224.22;4992563;28;20047;-89
2022/03/03 04:20:30;;;;;;;29.80;15.13;;;;;;;2.19;58.25;100225.16;5022449;28;20040;-89
2022/03/03 04:23:24;;;;;;;29.23;14.70;;;;;;;2.11;58.98;100230.75;5010254;28;20094;-89
2022/03/03 04:25:51;;;;;;;33.58;16.25;;;;;;;2.15;58.38;100229.66;4943668;28;20048;-90
2022/03/03 04:28:21;;;;;;;31.27;15.80;;;;;;;2.13;58.31;100223.66;4990735;28;20047;-90
2022/03/03 04:30:48;;;;;;;30.23;16.05;;;;;;;2.15;58.53;100228.81;5029424;28;20118;-90
2022/03/03 04:33:15;;;;;;;29.63;14.65;;;;;;;2.15;58.64;100226.22;4999894;28;20071;-90
2022/03/03 04:35:46;;;;;;;27.25;14.77;;;;;;;2.10;58.40;100212.47;4987773;28;20040;-90
2022/03/03 04:38:13;;;;;;;33.97;15.23;;;;;;;2.10;58.56;100215.94;4994489;28;20044;-87
2022/03/03 04:40:40;;;;;;;24.20;13.43;;;;;;;2.09;58.51;100221.25;5025204;28;20044;-87
2022/03/03 04:43:07;;;;;;;28.15;14.85;;;;;;;2.07;58.20;100228.34;5020369;28;20045;-88
2022/03/03 04:45:33;;;;;;;25.42;13.85;;;;;;;2.03;58.50;100229.41;5002428;28;20044;-87
2022/03/03 04:48:00;;;;;;;32.03;14.75;;;;;;;2.02;58.28;100228.56;5018522;28;20062;-86
2022/03/03 04:50:27;;;;;;;29.42;14.70;;;;;;;2.02;58.51;100235.56;5023061;28;20214;-85
2022/03/03 04:52:54;;;;;;;29.90;15.68;;;;;;;2.00;58.65;100235.63;5019356;28;20052;-85
2022/03/03 04:55:20;;;;;;;29.65;15.40;;;;;;;1.98;58.48;100234.00;5034364;28;20490;-85
2022/03/03 04:57:48;;;;;;;26.60;14.23;;;;;;;1.96;58.59;100236.72;5023046;28;20476;-86
2022/03/03 05:00:14;;;;;;;29.00;15.65;;;;;;;1.95;58.66;100243.69;5010672;28;20377;-87
2022/03/03 05:02:41;;;;;;;30.73;16.23;;;;;;;1.94;58.90;100246.41;5017907;28;20155;-87
2022/03/03 05:05:08;;;;;;;29.92;14.20;;;;;;;1.92;58.82;100233.38;5034808;28;20044;-86
2022/03/03 05:07:37;;;;;;;29.95;15.07;;;;;;;1.93;58.94;100231.59;5004036;28;20048;-87
2022/03/03 05:10:04;;;;;;;29.20;15.70;;;;;;;1.92;59.05;100233.38;5011643;28;20048;-86
2022/03/03 05:12:32;;;;;;;26.25;14.70;;;;;;;1.91;58.70;100229.06;5001378;28;20536;-85
2022/03/03 05:14:59;;;;;;;32.55;14.45;;;;;;;1.91;58.93;100233.44;4987833;28;20507;-87
2022/03/03 05:17:26;;;;;;;30.98;14.88;;;;;;;1.89;58.90;100236.13;4982190;28;20044;-86
2022/03/03 05:19:53;;;;;;;25.92;13.65;;;;;;;1.88;58.77;100239.69;5005345;28;20048;-86
2022/03/03 05:22:20;;;;;;;31.73;14.48;;;;;;;1.86;58.83;100235.44;5007258;28;20182;-86
2022/03/03 05:24:50;;;;;;;29.00;14.68;;;;;;;1.87;59.13;100234.50;5039220;28;20053;-86
2022/03/03 05:27:17;;;;;;;29.35;15.60;;;;;;;1.86;58.94;100219.72;5024795;28;20051;-86
2022/03/03 05:29:44;;;;;;;28.20;15.25;;;;;;;1.84;58.84;100206.69;5013406;28;20127;-86
2022/03/03 05:32:11;;;;;;;29.08;15.80;;;;;;;1.83;58.81;100189.28;5010528;28;20404;-86
2022/03/03 05:34:38;;;;;;;26.80;14.13;;;;;;;1.81;58.83;100185.91;4998025;28;20047;-85
2022/03/03 05:37:05;;;;;;;25.63;15.55;;;;;;;1.80;58.71;100176.31;5019938;28;20400;-85
2022/03/03 05:39:36;;;;;;;28.10;14.50;;;;;;;1.81;59.02;100169.34;5015723;28;20713;-85
2022/03/03 05:42:03;;;;;;;31.50;15.88;;;;;;;1.80;59.02;100162.38;5033949;28;20037;-85
2022/03/03 05:44:30;;;;;;;27.35;15.60;;;;;;;1.77;59.07;100154.69;5021753;28;20067;-85
2022/03/03 05:46:57;;;;;;;26.20;15.45;;;;;;;1.76;58.85;100155.63;5022749;28;20135;-85
2022/03/03 05:49:26;;;;;;;26.23;15.35;;;;;;;1.74;58.81;100142.59;5018956;28;20044;-85
2022/03/03 05:51:52;;;;;;;25.20;14.45;;;;;;;1.73;59.00;100140.88;5019157;28;20052;-85
2022/03/03 05:54:19;;;;;;;27.77;14.82;;;;;;;1.72;58.92;100139.19;5032717;28;20041;-85
2022/03/03 05:56:48;;;;;;;25.77;15.88;;;;;;;1.71;59.16;100142.75;5030458;28;20420;-83
2022/03/03 05:59:15;;;;;;;30.88;16.85;;;;;;;1.69;59.09;100142.78;5021337;28;20063;-85
2022/03/03 06:01:42;;;;;;;29.00;15.52;;;;;;;1.67;59.22;100149.88;5032179;28;20128;-85
2022/03/03 06:04:13;;;;;;;29.65;14.80;;;;;;;1.66;59.31;100150.81;5032719;28;20066;-85
2022/03/03 06:06:53;;;;;;;31.00;16.15;;;;;;;1.66;59.36;100160.44;5032492;28;20044;-85
2022/03/03 06:09:25;;;;;;;32.88;16.90;;;;;;;1.57;59.60;100176.53;5046090;28;20131;-85
2022/03/03 06:12:19;;;;;;;26.58;14.52;;;;;;;1.54;59.42;100179.31;5030716;28;20069;-85
2022/03/03 06:15:02;;;;;;;37.45;14.90;;;;;;;1.46;59.36;100185.72;4974089;28;20413;-85
2022/03/03 06:17:29;;;;;;;26.45;13.27;;;;;;;1.50;59.15;100183.81;4971595;28;20055;-81
2022/03/03 06:20:00;;;;;;;29.33;14.27;;;;;;;1.47;59.45;100181.34;4996923;28;20044;-85
2022/03/03 06:22:27;;;;;;;29.42;15.52;;;;;;;1.48;59.47;100175.22;5035631;28;20041;-85
2022/03/03 06:24:54;;;;;;;30.92;13.77;;;;;;;1.50;59.32;100181.19;5020597;28;20037;-84
2022/03/03 06:27:25;;;;;;;28.73;15.10;;;;;;;1.50;59.43;100186.44;5020081;28;20075;-85
2022/03/03 06:29:52;;;;;;;27.25;14.13;;;;;;;1.50;59.61;100183.81;5033438;28;20045;-84
2022/03/03 06:32:18;;;;;;;28.45;14.57;;;;;;;1.49;59.50;100182.97;5031603;28;20045;-85
2022/03/03 06:34:45;;;;;;;29.17;14.80;;;;;;;1.50;59.69;100178.59;5017783;28;20049;-85
2022/03/03 06:37:12;;;;;;;24.75;14.15;;;;;;;1.50;59.70;100176.84;5052516;28;20053;-85
2022/03/03 06:39:39;;;;;;;27.83;14.48;;;;;;;1.52;59.65;100168.91;5017361;28;20045;-85
2022/03/03 06:42:06;;;;;;;28.92;16.17;;;;;;;1.53;60.04;100170.63;5030474;28;20423;-85
2022/03/03 06:44:33;;;;;;;29.75;17.60;;;;;;;1.54;60.10;100163.59;5017739;28;20053;-81
2022/03/03 06:47:01;;;;;;;35.38;17.80;;;;;;;1.55;59.79;100162.66;5048190;28;20041;-85
2022/03/03 06:49:29;;;;;;;34.10;18.63;;;;;;;1.56;59.99;100167.00;5034946;28;20045;-84
2022/03/03 06:51:57;;;;;;;37.88;18.33;;;;;;;1.58;60.20;100175.63;5045504;28;20048;-85
2022/03/03 06:54:24;;;;;;;36.65;18.73;;;;;;;1.58;60.08;100179.09;5012744;28;20057;-80
2022/03/03 06:56:55;;;;;;;33.92;16.75;;;;;;;1.57;60.15;100190.47;5039480;28;20053;-85
2022/03/03 06:59:32;;;;;;;39.92;18.67;;;;;;;1.55;60.21;100187.06;5035989;28;20099;-85
2022/03/03 07:02:00;;;;;;;40.08;19.45;;;;;;;1.56;60.00;100183.56;5042298;28;20377;-85
2022/03/03 07:04:29;;;;;;;30.45;16.23;;;;;;;1.57;60.02;100189.63;5035025;28;20044;-85
2022/03/03 07:06:56;;;;;;;34.05;15.35;;;;;;;1.56;59.97;100182.72;5033577;28;20045;-84
2022/03/03 07:09:23;;;;;;;34.70;16.92;;;;;;;1.57;60.02;100177.38;5036418;28;20055;-85
2022/03/03 07:11:50;;;;;;;36.53;16.30;;;;;;;1.57;59.93;100172.16;5021226;28;20139;-85
2022/03/03 07:14:17;;;;;;;33.75;15.27;;;;;;;1.58;59.94;100170.38;5052158;28;20399;-84
2022/03/03 07:16:47;;;;;;;33.85;15.50;;;;;;;1.59;60.17;100172.09;5055583;28;20131;-85
2022/03/03 07:19:37;;;;;;;29.70;15.43;;;;;;;1.57;60.70;100176.53;5020738;28;20125;-85
2022/03/03 07:22:26;;;;;;;33.20;16.83;;;;;;;1.57;60.88;100184.41;5025056;28;20488;-85
2022/03/03 07:25:09;;;;;;;28.95;16.15;;;;;;;1.56;60.77;100185.31;4979643;28;20044;-85
2022/03/03 07:27:41;;;;;;;39.00;18.50;;;;;;;1.58;60.39;100194.81;5041891;28;20048;-85
2022/03/03 07:30:12;;;;;;;33.97;15.15;;;;;;;1.47;60.66;100200.50;4977964;28;20057;-85
2022/03/03 07:32:47;;;;;;;35.28;16.13;;;;;;;1.40;60.72;100196.50;4944770;28;20050;-82
2022/03/03 07:35:15;;;;;;;29.60;15.75;;;;;;;1.46;60.12;100204.06;4985919;28;20046;-83
2022/03/03 07:37:47;;;;;;;35.30;15.48;;;;;;;1.44;60.64;100207.66;5000824;28;20052;-85
2022/03/03 07:40:14;;;;;;;31.58;16.27;;;;;;;1.47;60.21;100200.50;4984997;28;20079;-85
2022/03/03 07:42:41;;;;;;;34.45;16.35;;;;;;;1.49;60.60;100190.81;4981649;28;20406;-84
2022/03/03 07:45:08;;;;;;;33.90;16.83;;;;;;;1.52;60.48;100193.28;4979873;28;20572;-85
2022/03/03 07:47:35;;;;;;;32.03;16.70;;;;;;;1.55;60.49;100181.84;4968443;28;20141;-85
2022/03/03 07:50:03;;;;;;;35.88;16.35;;;;;;;1.58;61.08;100189.56;4981299;28;20045;-83
2022/03/03 07:52:31;;;;;;;33.45;16.15;;;;;;;1.62;61.19;100185.88;4968147;28;20494;-85
2022/03/03 07:54:58;;;;;;;43.17;18.30;;;;;;;1.66;60.89;100186.59;4950604;28;20050;-85
2022/03/03 07:57:33;;;;;;;32.35;16.77;;;;;;;1.65;61.21;100184.88;4953923;28;20085;-85
2022/03/03 08:00:06;;;;;;;37.20;15.88;;;;;;;1.64;60.98;100196.28;4977938;28;20053;-85
2022/03/03 08:02:33;;;;;;;;;;;;;;;1.56;61.34;100187.94;5035928;28;20053;-84
2022/03/03 08:05:01;;;;;;;34.00;16.45;;;;;;;1.64;61.13;100188.44;5023236;28;20309;-86
2022/03/03 08:07:35;;;;;;;36.65;17.83;;;;;;;1.66;61.02;100184.00;5034292;28;20048;-85
2022/03/03 08:10:02;;;;;;;40.83;17.80;;;;;;;1.70;60.97;100182.91;5016898;28;20172;-85
2022/03/03 08:12:31;;;;;;;39.72;18.20;;;;;;;1.71;61.25;100188.09;5028359;28;20074;-85
2022/03/03 08:14:58;;;;;;;42.15;19.48;;;;;;;1.73;61.35;100186.25;5037557;28;20044;-85
2022/03/03 08:17:25;;;;;;;43.00;19.05;;;;;;;1.76;61.13;100171.31;5033889;28;20474;-83
2022/03/03 08:19:54;;;;;;;38.72;17.75;;;;;;;1.77;61.26;100179.09;4991089;28;20052;-86
2022/03/03 08:22:24;;;;;;;40.88;19.08;;;;;;;1.81;61.59;100178.03;5049682;28;20492;-86
2022/03/03 08:24:54;;;;;;;42.08;18.55;;;;;;;1.84;61.58;100166.56;5025256;28;20044;-85
2022/03/03 08:27:22;;;;;;;39.92;18.98;;;;;;;1.85;61.86;100182.19;5029750;28;20075;-86
2022/03/03 08:29:50;;;;;;;37.58;18.45;;;;;;;1.86;61.86;100180.44;5032330;28;20056;-86
2022/03/03 08:32:18;;;;;;;34.40;17.50;;;;;;;1.89;61.69;100178.53;5033703;28;20514;-82
2022/03/03 08:35:10;;;;;;;34.72;17.70;;;;;;;1.88;61.85;100174.22;5004631;28;20040;-86
2022/03/03 08:37:41;;;;;;;31.88;16.00;;;;;;;1.91;61.03;100175.84;4981308;28;20526;-86
2022/03/03 08:40:12;;;;;;;35.35;16.75;;;;;;;1.95;61.33;100174.75;4999313;28;20049;-86
2022/03/03 08:42:41;;;;;;;46.10;18.80;;;;;;;1.96;61.59;100181.72;5004215;28;20377;-85
2022/03/03 08:45:10;;;;;;;37.25;17.65;;;;;;;2.01;61.39;100171.00;5031652;28;20488;-86
2022/03/03 08:47:39;;;;;;;36.15;17.60;;;;;;;2.01;61.24;100177.09;5022370;28;20044;-86
2022/03/03 08:50:11;;;;;;;33.38;16.42;;;;;;;2.02;61.21;100184.03;5018249;28;20091;-86
2022/03/03 08:52:53;;;;;;;39.65;18.17;;;;;;;2.02;61.11;100178.78;5004107;28;20041;-86
2022/03/03 08:55:20;;;;;;;35.72;18.52;;;;;;;2.09;61.07;100188.06;5030644;28;20102;-86
2022/03/03 08:57:47;;;;;;;30.48;16.15;;;;;;;2.06;61.14;100177.72;5003660;28;20044;-86
2022/03/03 09:00:14;;;;;;;36.55;17.25;;;;;;;2.08;61.26;100175.88;5009907;28;20048;-86
2022/03/03 09:02:41;;;;;;;37.45;18.25;;;;;;;2.15;61.11;100187.75;5021962;28;20053;-86
2022/03/03 09:05:09;;;;;;;34.30;18.35;;;;;;;2.14;60.93;100177.38;5055063;28;20047;-86
2022/03/03 09:07:36;;;;;;;36.08;17.10;;;;;;;2.17;60.90;100182.44;5034335;28;20048;-87
2022/03/03 09:10:04;;;;;;;39.03;18.52;;;;;;;2.21;60.95;100177.91;5032738;28;20041;-84
2022/03/03 09:12:30;;;;;;;33.30;18.35;;;;;;;2.21;60.90;100167.41;5022926;28;20051;-86
2022/03/03 09:14:57;;;;;;;35.38;17.50;;;;;;;2.24;61.13;100168.13;5026958;28;20052;-85
2022/03/03 09:17:31;;;;;;;33.95;16.77;;;;;;;2.28;60.91;100169.66;5017493;28;20033;-86
2022/03/03 09:19:57;;;;;;;34.60;16.85;;;;;;;2.29;61.24;100165.25;5020477;28;20052;-86
2022/03/03 09:22:24;;;;;;;35.40;17.63;;;;;;;2.31;61.11;100158.19;5050969;28;20049;-85
2022/03/03 09:24:53;;;;;;;35.40;18.13;;;;;;;2.35;60.96;100162.38;5014105;28;20053;-86
2022/03/03 09:27:20;;;;;;;34.10;17.85;;;;;;;2.38;61.06;100151.72;5020833;28;20033;-86
2022/03/03 09:29:47;;;;;;;33.25;17.35;;;;;;;2.40;60.96;100149.88;5017070;28;20041;-85
2022/03/03 09:32:13;;;;;;;33.60;16.67;;;;;;;2.45;60.88;100157.53;5033382;28;20049;-86
2022/03/03 09:34:40;;;;;;;36.55;17.63;;;;;;;2.46;61.07;100151.34;5032017;28;20045;-86
2022/03/03 09:37:07;;;;;;;41.20;17.95;;;;;;;2.51;60.80;100157.19;5034212;28;20506;-86
2022/03/03 09:39:34;;;;;;;34.58;16.90;;;;;;;2.53;61.18;100144.88;5043612;28;20493;-86
2022/03/03 09:42:00;;;;;;;37.75;17.63;;;;;;;2.67;61.00;100150.28;5051156;28;20072;-86
2022/03/03 09:44:27;;;;;;;32.47;16.75;;;;;;;2.85;60.87;100148.50;5023090;28;20041;-85
2022/03/03 09:46:55;;;;;;;36.08;17.00;;;;;;;2.72;60.32;100139.53;5023635;28;20128;-86
2022/03/03 09:49:22;;;;;;;37.42;17.80;;;;;;;2.68;60.41;100135.38;5020053;28;20037;-86
2022/03/03 09:51:50;;;;;;;39.42;18.02;;;;;;;2.94;59.66;100128.78;5024327;28;20048;-86
2022/03/03 09:54:17;;;;;;;32.95;16.42;;;;;;;2.87;60.01;100122.16;5034460;28;20052;-86
2022/03/03 09:56:45;;;;;;;31.73;17.38;;;;;;;2.96;59.67;100114.66;5032791;28;20064;-86
2022/03/03 09:59:13;;;;;;;34.38;17.23;;;;;;;2.88;59.85;100118.63;5031624;28;20048;-86
2022/03/03 10:01:40;;;;;;;37.53;18.70;;;;;;;2.92;59.47;100107.88;5053150;28;20048;-85
2022/03/03 10:04:36;;;;;;;32.45;16.27;;;;;;;2.88;58.83;100114.22;5033293;28;20585;-86
2022/03/03 10:07:05;;;;;;;37.90;17.50;;;;;;;3.15;58.42;100116.31;4970054;28;20382;-86
2022/03/03 10:09:32;;;;;;;38.53;17.90;;;;;;;3.12;59.44;100114.69;5047634;28;20059;-86
2022/03/03 10:12:04;;;;;;;36.70;17.60;;;;;;;3.16;58.56;100103.13;5016346;28;20045;-86
2022/03/03 10:14:33;;;;;;;32.50;17.45;;;;;;;3.14;59.10;100099.72;5041827;28;21125;-82
2022/03/03 10:17:00;;;;;;;33.72;16.48;;;;;;;3.17;59.17;100101.34;5015858;28;20044;-86
2022/03/03 10:19:57;;;;;;;34.45;16.80;;;;;;;3.09;58.22;100111.41;4996481;28;20052;-86
2022/03/03 10:22:40;;;;;;;36.72;16.77;;;;;;;3.10;58.43;100113.09;5000406;28;20086;-86
2022/03/03 10:25:08;;;;;;;36.10;16.20;;;;;;;3.14;58.87;100109.38;5048257;28;20773;-86
2022/03/03 10:27:36;;;;;;;32.47;17.13;;;;;;;3.20;59.15;100098.53;5021496;28;20515;-85
2022/03/03 10:30:05;;;;;;;31.48;16.75;;;;;;;3.27;59.00;100107.78;5037046;28;20060;-84
2022/03/03 10:32:35;;;;;;;28.70;15.55;;;;;;;3.33;58.70;100099.56;5035549;28;20045;-86
2022/03/03 10:35:14;;;;;;;31.85;16.50;;;;;;;3.29;58.74;100090.19;4991093;28;20045;-86
2022/03/03 10:37:43;;;;;;;35.70;17.48;;;;;;;3.34;58.77;100082.91;5006971;28;20037;-86
2022/03/03 10:40:13;;;;;;;34.22;17.35;;;;;;;3.41;59.18;100078.16;5015340;28;20040;-86
2022/03/03 10:42:46;;;;;;;33.25;18.05;;;;;;;3.39;58.96;100075.63;5036842;28;20045;-86
2022/03/03 10:45:17;;;;;;;33.95;16.65;;;;;;;3.40;58.94;100072.06;5014355;28;20404;-85
2022/03/03 10:47:46;;;;;;;32.78;15.65;;;;;;;3.41;59.21;100058.03;5032511;28;20538;-85
2022/03/03 10:50:13;;;;;;;37.65;17.60;;;;;;;3.43;59.32;100060.53;5020256;28;20405;-86
2022/03/03 10:52:40;;;;;;;34.78;16.80;;;;;;;3.48;58.93;100064.59;5018095;28;20106;-86
2022/03/03 10:55:16;;;;;;;34.35;17.88;;;;;;;3.45;58.80;100061.31;5023375;28;20040;-85
2022/03/03 10:57:45;;;;;;;33.28;17.33;;;;;;;3.50;58.91;100064.53;5018051;28;20047;-86
2022/03/03 11:00:25;;;;;;;41.17;19.27;;;;;;;3.49;58.58;100054.97;5040929;28;20047;-86
2022/03/03 11:02:57;;;;;;;38.83;17.65;;;;;;;3.56;58.67;100060.72;5036059;28;20485;-86
2022/03/03 11:05:26;;;;;;;37.95;17.90;;;;;;;3.61;59.15;100056.03;5037224;28;20043;-86
2022/03/03 11:07:53;;;;;;;38.50;19.40;;;;;;;3.72;58.64;100047.59;5010022;28;20048;-86
2022/03/03 11:10:27;;;;;;;34.17;16.73;;;;;;;3.63;58.84;100041.06;5033122;28;20114;-86
2022/03/03 11:12:54;;;;;;;;;;;;;;;3.65;58.69;100044.44;5036960;28;20074;-85
2022/03/03 11:15:24;;;;;;;39.88;17.55;;;;;;;3.69;58.87;100049.44;5021727;28;19931;-85
2022/03/03 11:17:52;;;;;;;36.80;17.08;;;;;;;3.73;58.86;100038.75;5019307;28;20052;-85
2022/03/03 11:20:20;;;;;;;33.30;17.52;;;;;;;3.72;59.00;100050.22;5006375;28;20079;-82
2022/03/03 11:22:48;;;;;;;31.88;15.80;;;;;;;3.73;58.85;100041.38;5035225;28;20484;-86
2022/03/03 11:25:28;;;;;;;34.40;17.88;;;;;;;3.69;58.33;100036.31;5033363;28;20530;-86
2022/03/03 11:28:07;;;;;;;30.88;16.42;;;;;;;3.71;58.68;100038.84;4999194;28;20033;-86
2022/03/03 11:30:35;;;;;;;35.60;19.10;;;;;;;3.84;58.75;100038.97;5044731;28;20043;-86
2022/03/03 11:33:17;;;;;;;32.33;15.98;;;;;;;3.78;58.65;100034.09;5035318;28;20051;-86